sensor_id;sensor_type;location;lat;lon;timestamp;P1;durP1;ratioP1;P2;durP2;ratioP2
7817;SDS011;3954;52.624;9.212;2023-05-06T00:00:10;8.82;;;8.13;;
7817;SDS011;3954;52.624;9.212;2023-05-06T00:02:36;8.40;;;7.75;;
7817;SDS011;3954;52.624;9.212;2023-05-06T00:05:02;8.75;;;8.05;;
7817;SDS011;3954;52.624;9.212;2023-05-06T00:07:30;9.05;;;8.25;;
7817;SDS011;3954;52.624;9.212;2023-05-06T00:09:56;9.90;;;9.13;;
7817;SDS011;3954;52.624;9.212;2023-05-06T00:12:22;8.63;;;7.93;;
7817;SDS011;3954;52.624;9.212;2023-05-06T00:14:48;11.00;;;10.07;;
7817;SDS011;3954;52.624;9.212;2023-05-06T00:17:14;18.43;;;16.93;;
7817;SDS011;3954;52.624;9.212;2023-05-06T00:19:40;13.32;;;12.30;;
7817;SDS011;3954;52.624;9.212;2023-05-06T00:22:06;9.23;;;8.43;;
7817;SDS011;3954;52.624;9.212;2023-05-06T00:24:33;10.00;;;9.20;;
7817;SDS011;3954;52.624;9.212;2023-05-06T00:26:59;11.27;;;10.32;;
7817;SDS011;3954;52.624;9.212;2023-05-06T00:29:25;11.83;;;10.83;;
7817;SDS011;3954;52.624;9.212;2023-05-06T00:31:51;11.48;;;10.57;;
7817;SDS011;3954;52.624;9.212;2023-05-06T00:34:17;10.80;;;9.80;;
7817;SDS011;3954;52.624;9.212;2023-05-06T00:36:43;10.43;;;9.52;;
7817;SDS011;3954;52.624;9.212;2023-05-06T00:39:09;8.93;;;8.23;;
7817;SDS011;3954;52.624;9.212;2023-05-06T00:41:37;9.40;;;8.68;;
7817;SDS011;3954;52.624;9.212;2023-05-06T00:44:03;8.93;;;8.15;;
7817;SDS011;3954;52.624;9.212;2023-05-06T00:46:29;8.82;;;8.10;;
7817;SDS011;3954;52.624;9.212;2023-05-06T00:48:55;8.30;;;7.70;;
7817;SDS011;3954;52.624;9.212;2023-05-06T00:51:22;9.25;;;8.55;;
7817;SDS011;3954;52.624;9.212;2023-05-06T00:53:48;8.88;;;8.18;;
7817;SDS011;3954;52.624;9.212;2023-05-06T00:56:14;8.40;;;7.68;;
7817;SDS011;3954;52.624;9.212;2023-05-06T00:58:43;8.75;;;7.85;;
7817;SDS011;3954;52.624;9.212;2023-05-06T01:01:09;7.40;;;6.80;;
7817;SDS011;3954;52.624;9.212;2023-05-06T01:03:36;7.55;;;6.85;;
7817;SDS011;3954;52.624;9.212;2023-05-06T01:06:06;7.65;;;6.95;;
7817;SDS011;3954;52.624;9.212;2023-05-06T01:08:33;6.90;;;6.40;;
7817;SDS011;3954;52.624;9.212;2023-05-06T01:11:01;6.78;;;6.18;;
7817;SDS011;3954;52.624;9.212;2023-05-06T01:13:29;7.13;;;6.53;;
7817;SDS011;3954;52.624;9.212;2023-05-06T01:16:01;6.22;;;5.72;;
7817;SDS011;3954;52.624;9.212;2023-05-06T01:18:29;6.40;;;5.90;;
7817;SDS011;3954;52.624;9.212;2023-05-06T01:20:56;7.90;;;7.20;;
7817;SDS011;3954;52.624;9.212;2023-05-06T01:23:25;6.75;;;6.25;;
7817;SDS011;3954;52.624;9.212;2023-05-06T01:25:51;6.07;;;5.60;;
7817;SDS011;3954;52.624;9.212;2023-05-06T01:28:17;7.80;;;7.10;;
7817;SDS011;3954;52.624;9.212;2023-05-06T01:30:45;8.18;;;7.47;;
7817;SDS011;3954;52.624;9.212;2023-05-06T01:33:15;8.10;;;7.40;;
7817;SDS011;3954;52.624;9.212;2023-05-06T01:35:48;8.88;;;8.07;;
7817;SDS011;3954;52.624;9.212;2023-05-06T01:38:16;8.68;;;7.90;;
7817;SDS011;3954;52.624;9.212;2023-05-06T01:40:45;7.43;;;6.82;;
7817;SDS011;3954;52.624;9.212;2023-05-06T01:43:13;7.93;;;7.20;;
7817;SDS011;3954;52.624;9.212;2023-05-06T01:45:39;8.90;;;8.00;;
7817;SDS011;3954;52.624;9.212;2023-05-06T01:48:06;8.45;;;7.75;;
7817;SDS011;3954;52.624;9.212;2023-05-06T01:50:32;9.68;;;8.88;;
7817;SDS011;3954;52.624;9.212;2023-05-06T01:52:59;9.15;;;8.45;;
7817;SDS011;3954;52.624;9.212;2023-05-06T01:55:25;10.07;;;9.20;;
7817;SDS011;3954;52.624;9.212;2023-05-06T01:57:53;10.77;;;9.77;;
7817;SDS011;3954;52.624;9.212;2023-05-06T02:00:19;11.90;;;10.80;;
7817;SDS011;3954;52.624;9.212;2023-05-06T02:02:45;11.98;;;10.90;;
7817;SDS011;3954;52.624;9.212;2023-05-06T02:05:11;9.90;;;9.10;;
7817;SDS011;3954;52.624;9.212;2023-05-06T02:07:37;8.70;;;8.00;;
7817;SDS011;3954;52.624;9.212;2023-05-06T02:10:03;9.52;;;8.73;;
7817;SDS011;3954;52.624;9.212;2023-05-06T02:12:30;8.20;;;7.50;;
7817;SDS011;3954;52.624;9.212;2023-05-06T02:14:57;7.97;;;7.30;;
7817;SDS011;3954;52.624;9.212;2023-05-06T02:17:23;8.03;;;7.33;;
7817;SDS011;3954;52.624;9.212;2023-05-06T02:19:49;7.82;;;7.22;;
7817;SDS011;3954;52.624;9.212;2023-05-06T02:22:15;8.00;;;7.30;;
7817;SDS011;3954;52.624;9.212;2023-05-06T02:24:41;8.48;;;7.78;;
7817;SDS011;3954;52.624;9.212;2023-05-06T02:27:07;10.70;;;9.77;;
7817;SDS011;3954;52.624;9.212;2023-05-06T02:29:33;10.85;;;9.93;;
7817;SDS011;3954;52.624;9.212;2023-05-06T02:32:00;10.93;;;10.02;;
7817;SDS011;3954;52.624;9.212;2023-05-06T02:34:26;9.88;;;9.10;;
7817;SDS011;3954;52.624;9.212;2023-05-06T02:36:52;9.33;;;8.53;;
7817;SDS011;3954;52.624;9.212;2023-05-06T02:39:18;11.70;;;10.70;;
7817;SDS011;3954;52.624;9.212;2023-05-06T02:41:44;12.30;;;11.20;;
7817;SDS011;3954;52.624;9.212;2023-05-06T02:44:10;12.00;;;10.90;;
7817;SDS011;3954;52.624;9.212;2023-05-06T02:46:36;12.40;;;11.20;;
7817;SDS011;3954;52.624;9.212;2023-05-06T02:49:03;12.80;;;11.63;;
7817;SDS011;3954;52.624;9.212;2023-05-06T02:51:29;11.02;;;10.02;;
7817;SDS011;3954;52.624;9.212;2023-05-06T02:53:55;11.00;;;10.10;;
7817;SDS011;3954;52.624;9.212;2023-05-06T02:56:21;11.50;;;10.60;;
7817;SDS011;3954;52.624;9.212;2023-05-06T02:58:48;10.73;;;9.90;;
7817;SDS011;3954;52.624;9.212;2023-05-06T03:01:14;11.18;;;10.27;;
7817;SDS011;3954;52.624;9.212;2023-05-06T03:03:40;10.98;;;10.05;;
7817;SDS011;3954;52.624;9.212;2023-05-06T03:06:07;10.60;;;9.70;;
7817;SDS011;3954;52.624;9.212;2023-05-06T03:08:33;10.57;;;9.68;;
7817;SDS011;3954;52.624;9.212;2023-05-06T03:10:59;9.85;;;8.95;;
7817;SDS011;3954;52.624;9.212;2023-05-06T03:13:25;10.20;;;9.40;;
7817;SDS011;3954;52.624;9.212;2023-05-06T03:15:51;10.68;;;9.77;;
7817;SDS011;3954;52.624;9.212;2023-05-06T03:18:20;10.00;;;9.20;;
7817;SDS011;3954;52.624;9.212;2023-05-06T03:20:47;10.38;;;9.57;;
7817;SDS011;3954;52.624;9.212;2023-05-06T03:23:14;11.40;;;10.40;;
7817;SDS011;3954;52.624;9.212;2023-05-06T03:25:40;11.30;;;10.40;;
7817;SDS011;3954;52.624;9.212;2023-05-06T03:28:06;12.70;;;11.60;;
7817;SDS011;3954;52.624;9.212;2023-05-06T03:30:32;13.00;;;11.90;;
7817;SDS011;3954;52.624;9.212;2023-05-06T03:32:58;11.25;;;10.35;;
7817;SDS011;3954;52.624;9.212;2023-05-06T03:35:25;11.95;;;10.98;;
7817;SDS011;3954;52.624;9.212;2023-05-06T03:37:51;13.45;;;12.35;;
7817;SDS011;3954;52.624;9.212;2023-05-06T03:40:18;11.88;;;10.77;;
7817;SDS011;3954;52.624;9.212;2023-05-06T03:42:44;14.02;;;12.80;;
7817;SDS011;3954;52.624;9.212;2023-05-06T03:45:10;12.63;;;11.63;;
7817;SDS011;3954;52.624;9.212;2023-05-06T03:47:36;12.63;;;11.52;;
7817;SDS011;3954;52.624;9.212;2023-05-06T03:50:03;12.68;;;11.60;;
7817;SDS011;3954;52.624;9.212;2023-05-06T03:52:29;17.05;;;15.55;;
7817;SDS011;3954;52.624;9.212;2023-05-06T03:54:55;17.45;;;15.90;;
7817;SDS011;3954;52.624;9.212;2023-05-06T03:57:22;14.60;;;13.30;;
7817;SDS011;3954;52.624;9.212;2023-05-06T03:59:48;14.77;;;13.57;;
7817;SDS011;3954;52.624;9.212;2023-05-06T04:02:14;15.23;;;13.98;;
7817;SDS011;3954;52.624;9.212;2023-05-06T04:04:40;15.82;;;14.40;;
7817;SDS011;3954;52.624;9.212;2023-05-06T04:07:06;14.63;;;13.32;;
7817;SDS011;3954;52.624;9.212;2023-05-06T04:09:32;14.55;;;13.18;;
7817;SDS011;3954;52.624;9.212;2023-05-06T04:11:58;13.88;;;12.73;;
7817;SDS011;3954;52.624;9.212;2023-05-06T04:14:27;15.90;;;14.60;;
7817;SDS011;3954;52.624;9.212;2023-05-06T04:16:53;13.48;;;12.38;;
7817;SDS011;3954;52.624;9.212;2023-05-06T04:19:19;14.68;;;13.38;;
7817;SDS011;3954;52.624;9.212;2023-05-06T04:21:45;14.55;;;13.25;;
7817;SDS011;3954;52.624;9.212;2023-05-06T04:24:11;13.82;;;12.63;;
7817;SDS011;3954;52.624;9.212;2023-05-06T04:26:39;14.23;;;13.13;;
7817;SDS011;3954;52.624;9.212;2023-05-06T04:29:05;13.95;;;12.75;;
7817;SDS011;3954;52.624;9.212;2023-05-06T04:31:33;15.27;;;13.98;;
7817;SDS011;3954;52.624;9.212;2023-05-06T04:33:59;13.47;;;12.37;;
7817;SDS011;3954;52.624;9.212;2023-05-06T04:36:25;15.50;;;14.13;;
7817;SDS011;3954;52.624;9.212;2023-05-06T04:38:51;14.93;;;13.63;;
7817;SDS011;3954;52.624;9.212;2023-05-06T04:41:17;14.25;;;13.10;;
7817;SDS011;3954;52.624;9.212;2023-05-06T04:43:44;13.40;;;12.30;;
7817;SDS011;3954;52.624;9.212;2023-05-06T04:46:10;14.93;;;13.63;;
7817;SDS011;3954;52.624;9.212;2023-05-06T04:48:38;14.60;;;13.40;;
7817;SDS011;3954;52.624;9.212;2023-05-06T04:51:04;15.70;;;14.40;;
7817;SDS011;3954;52.624;9.212;2023-05-06T04:53:30;15.23;;;13.93;;
7817;SDS011;3954;52.624;9.212;2023-05-06T04:55:56;15.93;;;14.43;;
7817;SDS011;3954;52.624;9.212;2023-05-06T04:58:22;15.25;;;13.95;;
7817;SDS011;3954;52.624;9.212;2023-05-06T05:00:48;15.07;;;13.77;;
7817;SDS011;3954;52.624;9.212;2023-05-06T05:03:14;15.30;;;14.00;;
7817;SDS011;3954;52.624;9.212;2023-05-06T05:05:41;15.82;;;14.43;;
7817;SDS011;3954;52.624;9.212;2023-05-06T05:08:08;14.70;;;13.50;;
7817;SDS011;3954;52.624;9.212;2023-05-06T05:10:35;15.32;;;14.02;;
7817;SDS011;3954;52.624;9.212;2023-05-06T05:13:01;15.88;;;14.57;;
7817;SDS011;3954;52.624;9.212;2023-05-06T05:15:27;14.98;;;13.75;;
7817;SDS011;3954;52.624;9.212;2023-05-06T05:17:53;14.90;;;13.63;;
7817;SDS011;3954;52.624;9.212;2023-05-06T05:20:19;16.02;;;14.65;;
7817;SDS011;3954;52.624;9.212;2023-05-06T05:22:47;17.15;;;15.65;;
7817;SDS011;3954;52.624;9.212;2023-05-06T05:25:13;19.30;;;17.60;;
7817;SDS011;3954;52.624;9.212;2023-05-06T05:27:39;19.30;;;17.60;;
7817;SDS011;3954;52.624;9.212;2023-05-06T05:30:07;19.60;;;17.95;;
7817;SDS011;3954;52.624;9.212;2023-05-06T05:32:33;19.77;;;18.05;;
7817;SDS011;3954;52.624;9.212;2023-05-06T05:34:59;18.00;;;16.50;;
7817;SDS011;3954;52.624;9.212;2023-05-06T05:37:25;17.53;;;16.10;;
7817;SDS011;3954;52.624;9.212;2023-05-06T05:39:52;16.95;;;15.43;;
7817;SDS011;3954;52.624;9.212;2023-05-06T05:42:18;17.35;;;15.85;;
7817;SDS011;3954;52.624;9.212;2023-05-06T05:44:44;17.95;;;16.45;;
7817;SDS011;3954;52.624;9.212;2023-05-06T05:47:11;16.90;;;15.50;;
7817;SDS011;3954;52.624;9.212;2023-05-06T05:49:37;17.50;;;16.00;;
7817;SDS011;3954;52.624;9.212;2023-05-06T05:52:03;16.42;;;14.93;;
7817;SDS011;3954;52.624;9.212;2023-05-06T05:54:29;16.83;;;15.33;;
7817;SDS011;3954;52.624;9.212;2023-05-06T05:56:56;17.88;;;16.23;;
7817;SDS011;3954;52.624;9.212;2023-05-06T05:59:22;15.70;;;14.30;;
7817;SDS011;3954;52.624;9.212;2023-05-06T06:01:48;16.67;;;15.27;;
7817;SDS011;3954;52.624;9.212;2023-05-06T06:04:14;15.80;;;14.43;;
7817;SDS011;3954;52.624;9.212;2023-05-06T06:06:40;17.30;;;15.55;;
7817;SDS011;3954;52.624;9.212;2023-05-06T06:09:07;16.35;;;14.75;;
7817;SDS011;3954;52.624;9.212;2023-05-06T06:11:33;16.50;;;15.00;;
7817;SDS011;3954;52.624;9.212;2023-05-06T06:14:01;15.00;;;13.73;;
7817;SDS011;3954;52.624;9.212;2023-05-06T06:16:27;16.20;;;14.70;;
7817;SDS011;3954;52.624;9.212;2023-05-06T06:18:53;14.75;;;13.52;;
7817;SDS011;3954;52.624;9.212;2023-05-06T06:21:19;15.63;;;14.27;;
7817;SDS011;3954;52.624;9.212;2023-05-06T06:23:45;16.40;;;14.90;;
7817;SDS011;3954;52.624;9.212;2023-05-06T06:26:11;16.50;;;15.00;;
7817;SDS011;3954;52.624;9.212;2023-05-06T06:28:37;15.83;;;14.43;;
7817;SDS011;3954;52.624;9.212;2023-05-06T06:31:05;15.07;;;13.73;;
7817;SDS011;3954;52.624;9.212;2023-05-06T06:33:31;14.75;;;13.45;;
7817;SDS011;3954;52.624;9.212;2023-05-06T06:35:57;14.68;;;13.38;;
7817;SDS011;3954;52.624;9.212;2023-05-06T06:38:23;16.45;;;15.00;;
7817;SDS011;3954;52.624;9.212;2023-05-06T06:40:49;17.30;;;15.70;;
7817;SDS011;3954;52.624;9.212;2023-05-06T06:43:15;17.23;;;15.63;;
7817;SDS011;3954;52.624;9.212;2023-05-06T06:45:45;20.48;;;18.55;;
7817;SDS011;3954;52.624;9.212;2023-05-06T06:48:12;18.58;;;16.95;;
7817;SDS011;3954;52.624;9.212;2023-05-06T06:50:38;19.52;;;17.75;;
7817;SDS011;3954;52.624;9.212;2023-05-06T06:53:04;19.70;;;18.00;;
7817;SDS011;3954;52.624;9.212;2023-05-06T06:55:30;23.85;;;21.48;;
7817;SDS011;3954;52.624;9.212;2023-05-06T06:57:57;24.67;;;22.23;;
7817;SDS011;3954;52.624;9.212;2023-05-06T07:00:23;22.20;;;20.13;;
7817;SDS011;3954;52.624;9.212;2023-05-06T07:02:49;18.70;;;17.03;;
7817;SDS011;3954;52.624;9.212;2023-05-06T07:05:16;19.00;;;17.20;;
7817;SDS011;3954;52.624;9.212;2023-05-06T07:07:42;16.00;;;14.55;;
7817;SDS011;3954;52.624;9.212;2023-05-06T07:10:09;14.60;;;13.30;;
7817;SDS011;3954;52.624;9.212;2023-05-06T07:12:35;15.25;;;13.75;;
7817;SDS011;3954;52.624;9.212;2023-05-06T07:15:01;14.23;;;12.95;;
7817;SDS011;3954;52.624;9.212;2023-05-06T07:17:30;13.10;;;11.77;;
7817;SDS011;3954;52.624;9.212;2023-05-06T07:19:56;12.32;;;11.23;;
7817;SDS011;3954;52.624;9.212;2023-05-06T07:22:24;15.10;;;13.70;;
7817;SDS011;3954;52.624;9.212;2023-05-06T07:24:50;14.23;;;13.02;;
7817;SDS011;3954;52.624;9.212;2023-05-06T07:27:16;15.98;;;14.50;;
7817;SDS011;3954;52.624;9.212;2023-05-06T07:29:42;21.13;;;19.05;;
7817;SDS011;3954;52.624;9.212;2023-05-06T07:32:08;19.75;;;17.95;;
7817;SDS011;3954;52.624;9.212;2023-05-06T07:34:34;22.30;;;20.20;;
7817;SDS011;3954;52.624;9.212;2023-05-06T07:37:00;22.52;;;20.52;;
7817;SDS011;3954;52.624;9.212;2023-05-06T07:39:29;24.95;;;22.45;;
7817;SDS011;3954;52.624;9.212;2023-05-06T07:41:55;23.88;;;21.48;;
7817;SDS011;3954;52.624;9.212;2023-05-06T07:44:21;24.70;;;22.43;;
7817;SDS011;3954;52.624;9.212;2023-05-06T07:46:47;24.23;;;21.92;;
7817;SDS011;3954;52.624;9.212;2023-05-06T07:49:13;24.02;;;21.75;;
7817;SDS011;3954;52.624;9.212;2023-05-06T07:51:40;26.65;;;24.13;;
7817;SDS011;3954;52.624;9.212;2023-05-06T07:54:06;26.98;;;24.30;;
7817;SDS011;3954;52.624;9.212;2023-05-06T07:56:33;26.05;;;23.52;;
7817;SDS011;3954;52.624;9.212;2023-05-06T07:59:00;25.00;;;22.65;;
7817;SDS011;3954;52.624;9.212;2023-05-06T08:01:26;23.73;;;21.33;;
7817;SDS011;3954;52.624;9.212;2023-05-06T08:03:53;21.17;;;19.17;;
7817;SDS011;3954;52.624;9.212;2023-05-06T08:06:19;20.95;;;18.85;;
7817;SDS011;3954;52.624;9.212;2023-05-06T08:08:45;22.07;;;20.03;;
7817;SDS011;3954;52.624;9.212;2023-05-06T08:11:11;22.73;;;20.65;;
7817;SDS011;3954;52.624;9.212;2023-05-06T08:13:38;23.87;;;21.63;;
7817;SDS011;3954;52.624;9.212;2023-05-06T08:16:05;23.13;;;20.88;;
7817;SDS011;3954;52.624;9.212;2023-05-06T08:18:31;21.90;;;19.80;;
7817;SDS011;3954;52.624;9.212;2023-05-06T08:20:57;22.58;;;20.48;;
7817;SDS011;3954;52.624;9.212;2023-05-06T08:23:23;21.27;;;19.27;;
7817;SDS011;3954;52.624;9.212;2023-05-06T08:25:49;18.80;;;16.98;;
7817;SDS011;3954;52.624;9.212;2023-05-06T08:28:15;19.02;;;17.25;;
7817;SDS011;3954;52.624;9.212;2023-05-06T08:30:42;17.50;;;15.88;;
7817;SDS011;3954;52.624;9.212;2023-05-06T08:33:11;17.27;;;15.57;;
7817;SDS011;3954;52.624;9.212;2023-05-06T08:35:37;15.20;;;13.80;;
7817;SDS011;3954;52.624;9.212;2023-05-06T08:38:03;25.98;;;23.67;;
7817;SDS011;3954;52.624;9.212;2023-05-06T08:40:29;15.97;;;14.47;;
7817;SDS011;3954;52.624;9.212;2023-05-06T08:42:57;14.43;;;13.02;;
7817;SDS011;3954;52.624;9.212;2023-05-06T08:45:24;12.95;;;11.80;;
7817;SDS011;3954;52.624;9.212;2023-05-06T08:47:52;13.60;;;12.35;;
7817;SDS011;3954;52.624;9.212;2023-05-06T08:50:18;13.55;;;12.25;;
7817;SDS011;3954;52.624;9.212;2023-05-06T08:52:44;12.75;;;11.65;;
7817;SDS011;3954;52.624;9.212;2023-05-06T08:55:12;11.80;;;10.63;;
7817;SDS011;3954;52.624;9.212;2023-05-06T08:57:38;11.60;;;10.60;;
7817;SDS011;3954;52.624;9.212;2023-05-06T09:00:05;12.57;;;11.38;;
7817;SDS011;3954;52.624;9.212;2023-05-06T09:02:34;12.17;;;11.10;;
7817;SDS011;3954;52.624;9.212;2023-05-06T09:05:02;13.27;;;11.98;;
7817;SDS011;3954;52.624;9.212;2023-05-06T09:07:28;11.88;;;10.82;;
7817;SDS011;3954;52.624;9.212;2023-05-06T09:09:54;12.73;;;11.52;;
7817;SDS011;3954;52.624;9.212;2023-05-06T09:12:22;11.20;;;10.20;;
7817;SDS011;3954;52.624;9.212;2023-05-06T09:14:48;11.38;;;10.27;;
7817;SDS011;3954;52.624;9.212;2023-05-06T09:17:18;11.45;;;10.45;;
7817;SDS011;3954;52.624;9.212;2023-05-06T09:19:52;14.13;;;12.73;;
7817;SDS011;3954;52.624;9.212;2023-05-06T09:22:22;11.32;;;10.32;;
7817;SDS011;3954;52.624;9.212;2023-05-06T09:24:48;11.82;;;10.70;;
7817;SDS011;3954;52.624;9.212;2023-05-06T09:27:21;11.77;;;10.68;;
7817;SDS011;3954;52.624;9.212;2023-05-06T09:29:57;12.05;;;10.52;;
7817;SDS011;3954;52.624;9.212;2023-05-06T09:32:24;11.38;;;10.27;;
7817;SDS011;3954;52.624;9.212;2023-05-06T09:34:50;10.85;;;9.75;;
7817;SDS011;3954;52.624;9.212;2023-05-06T09:37:16;10.68;;;9.68;;
7817;SDS011;3954;52.624;9.212;2023-05-06T09:39:46;9.60;;;8.70;;
7817;SDS011;3954;52.624;9.212;2023-05-06T09:42:12;9.73;;;8.82;;
7817;SDS011;3954;52.624;9.212;2023-05-06T09:44:38;10.45;;;8.93;;
7817;SDS011;3954;52.624;9.212;2023-05-06T09:47:04;10.10;;;9.10;;
7817;SDS011;3954;52.624;9.212;2023-05-06T09:49:30;9.18;;;8.15;;
7817;SDS011;3954;52.624;9.212;2023-05-06T09:51:56;9.57;;;8.57;;
7817;SDS011;3954;52.624;9.212;2023-05-06T09:54:23;9.23;;;8.33;;
7817;SDS011;3954;52.624;9.212;2023-05-06T09:56:50;9.93;;;8.93;;
7817;SDS011;3954;52.624;9.212;2023-05-06T09:59:16;11.23;;;10.23;;
7817;SDS011;3954;52.624;9.212;2023-05-06T10:01:44;12.47;;;11.37;;
7817;SDS011;3954;52.624;9.212;2023-05-06T10:04:11;9.65;;;8.75;;
7817;SDS011;3954;52.624;9.212;2023-05-06T10:06:38;9.85;;;8.88;;
7817;SDS011;3954;52.624;9.212;2023-05-06T10:09:05;9.70;;;8.80;;
7817;SDS011;3954;52.624;9.212;2023-05-06T10:11:32;32.60;;;29.33;;
7817;SDS011;3954;52.624;9.212;2023-05-06T10:13:59;14.25;;;12.85;;
7817;SDS011;3954;52.624;9.212;2023-05-06T10:16:26;9.50;;;8.60;;
7817;SDS011;3954;52.624;9.212;2023-05-06T10:18:52;9.57;;;8.57;;
7817;SDS011;3954;52.624;9.212;2023-05-06T10:21:19;9.50;;;8.60;;
7817;SDS011;3954;52.624;9.212;2023-05-06T10:23:48;11.57;;;10.48;;
7817;SDS011;3954;52.624;9.212;2023-05-06T10:26:16;9.90;;;9.10;;
7817;SDS011;3954;52.624;9.212;2023-05-06T10:28:43;10.87;;;9.77;;
7817;SDS011;3954;52.624;9.212;2023-05-06T10:31:14;9.40;;;8.50;;
7817;SDS011;3954;52.624;9.212;2023-05-06T10:33:41;9.60;;;8.60;;
7817;SDS011;3954;52.624;9.212;2023-05-06T10:36:11;8.90;;;8.00;;
7817;SDS011;3954;52.624;9.212;2023-05-06T10:38:39;28.73;;;25.92;;
7817;SDS011;3954;52.624;9.212;2023-05-06T10:41:06;9.95;;;8.95;;
7817;SDS011;3954;52.624;9.212;2023-05-06T10:43:33;13.48;;;12.27;;
7817;SDS011;3954;52.624;9.212;2023-05-06T10:46:00;9.50;;;8.60;;
7817;SDS011;3954;52.624;9.212;2023-05-06T10:48:28;9.07;;;8.13;;
7817;SDS011;3954;52.624;9.212;2023-05-06T10:53:54;26.05;;;23.33;;
7817;SDS011;3954;52.624;9.212;2023-05-06T10:56:20;8.95;;;8.13;;
7817;SDS011;3954;52.624;9.212;2023-05-06T10:58:46;9.23;;;8.27;;
7817;SDS011;3954;52.624;9.212;2023-05-06T11:01:12;8.52;;;7.72;;
7817;SDS011;3954;52.624;9.212;2023-05-06T11:03:42;8.75;;;7.05;;
7817;SDS011;3954;52.624;9.212;2023-05-06T11:06:08;7.22;;;6.38;;
7817;SDS011;3954;52.624;9.212;2023-05-06T11:08:34;7.47;;;6.77;;
7817;SDS011;3954;52.624;9.212;2023-05-06T11:11:00;7.57;;;6.85;;
7817;SDS011;3954;52.624;9.212;2023-05-06T11:13:28;8.90;;;8.02;;
7817;SDS011;3954;52.624;9.212;2023-05-06T11:15:59;8.83;;;7.93;;
7817;SDS011;3954;52.624;9.212;2023-05-06T11:24:09;7.20;;;6.50;;
7817;SDS011;3954;52.624;9.212;2023-05-06T11:26:35;7.10;;;6.40;;
7817;SDS011;3954;52.624;9.212;2023-05-06T11:29:01;9.00;;;7.72;;
7817;SDS011;3954;52.624;9.212;2023-05-06T11:31:28;9.50;;;7.05;;
7817;SDS011;3954;52.624;9.212;2023-05-06T11:33:54;7.97;;;7.18;;
7817;SDS011;3954;52.624;9.212;2023-05-06T11:36:23;7.45;;;6.70;;
7817;SDS011;3954;52.624;9.212;2023-05-06T11:38:51;10.35;;;7.90;;
7817;SDS011;3954;52.624;9.212;2023-05-06T11:41:18;7.70;;;6.95;;
7817;SDS011;3954;52.624;9.212;2023-05-06T11:43:45;8.65;;;7.47;;
7817;SDS011;3954;52.624;9.212;2023-05-06T11:46:11;9.93;;;8.80;;
7817;SDS011;3954;52.624;9.212;2023-05-06T11:48:37;9.82;;;8.57;;
7817;SDS011;3954;52.624;9.212;2023-05-06T11:51:03;10.93;;;9.20;;
7817;SDS011;3954;52.624;9.212;2023-05-06T11:53:29;9.60;;;8.60;;
7817;SDS011;3954;52.624;9.212;2023-05-06T11:55:55;9.82;;;8.88;;
7817;SDS011;3954;52.624;9.212;2023-05-06T11:58:24;9.35;;;8.35;;
7817;SDS011;3954;52.624;9.212;2023-05-06T12:00:51;8.98;;;8.05;;
7817;SDS011;3954;52.624;9.212;2023-05-06T12:03:17;9.57;;;8.57;;
7817;SDS011;3954;52.624;9.212;2023-05-06T12:05:44;10.02;;;8.95;;
7817;SDS011;3954;52.624;9.212;2023-05-06T12:08:12;9.23;;;8.32;;
7817;SDS011;3954;52.624;9.212;2023-05-06T12:10:38;8.90;;;8.00;;
7817;SDS011;3954;52.624;9.212;2023-05-06T12:13:04;11.17;;;9.40;;
7817;SDS011;3954;52.624;9.212;2023-05-06T12:15:32;10.55;;;9.45;;
7817;SDS011;3954;52.624;9.212;2023-05-06T12:17:58;9.27;;;8.15;;
7817;SDS011;3954;52.624;9.212;2023-05-06T12:20:25;9.75;;;8.63;;
7817;SDS011;3954;52.624;9.212;2023-05-06T12:23:03;9.95;;;8.68;;
7817;SDS011;3954;52.624;9.212;2023-05-06T12:25:30;10.40;;;9.30;;
7817;SDS011;3954;52.624;9.212;2023-05-06T12:27:56;11.05;;;8.65;;
7817;SDS011;3954;52.624;9.212;2023-05-06T12:30:28;9.60;;;8.60;;
7817;SDS011;3954;52.624;9.212;2023-05-06T12:32:56;10.00;;;8.65;;
7817;SDS011;3954;52.624;9.212;2023-05-06T12:35:23;11.27;;;9.70;;
7817;SDS011;3954;52.624;9.212;2023-05-06T12:37:49;9.57;;;8.67;;
7817;SDS011;3954;52.624;9.212;2023-05-06T12:40:15;8.15;;;6.82;;
7817;SDS011;3954;52.624;9.212;2023-05-06T12:42:42;7.30;;;6.60;;
7817;SDS011;3954;52.624;9.212;2023-05-06T12:45:14;7.80;;;7.00;;
7817;SDS011;3954;52.624;9.212;2023-05-06T12:47:50;6.30;;;5.53;;
7817;SDS011;3954;52.624;9.212;2023-05-06T12:50:30;6.93;;;6.20;;
7817;SDS011;3954;52.624;9.212;2023-05-06T12:52:56;7.85;;;6.50;;
7817;SDS011;3954;52.624;9.212;2023-05-06T12:55:22;6.15;;;5.55;;
7817;SDS011;3954;52.624;9.212;2023-05-06T12:57:50;6.82;;;5.47;;
7817;SDS011;3954;52.624;9.212;2023-05-06T13:00:19;7.13;;;5.05;;
7817;SDS011;3954;52.624;9.212;2023-05-06T13:02:45;15.75;;;11.95;;
7817;SDS011;3954;52.624;9.212;2023-05-06T13:05:12;7.05;;;6.05;;
7817;SDS011;3954;52.624;9.212;2023-05-06T13:07:39;5.67;;;4.30;;
7817;SDS011;3954;52.624;9.212;2023-05-06T13:10:06;6.45;;;5.13;;
7817;SDS011;3954;52.624;9.212;2023-05-06T13:12:32;5.38;;;4.78;;
7817;SDS011;3954;52.624;9.212;2023-05-06T13:14:58;5.63;;;5.03;;
7817;SDS011;3954;52.624;9.212;2023-05-06T13:17:24;5.72;;;5.00;;
7817;SDS011;3954;52.624;9.212;2023-05-06T13:19:51;7.43;;;5.90;;
7817;SDS011;3954;52.624;9.212;2023-05-06T13:22:17;7.65;;;5.68;;
7817;SDS011;3954;52.624;9.212;2023-05-06T13:24:45;6.80;;;5.33;;
7817;SDS011;3954;52.624;9.212;2023-05-06T13:27:11;8.07;;;5.47;;
7817;SDS011;3954;52.624;9.212;2023-05-06T13:29:37;6.60;;;5.90;;
7817;SDS011;3954;52.624;9.212;2023-05-06T13:32:03;8.20;;;6.07;;
7817;SDS011;3954;52.624;9.212;2023-05-06T13:34:29;6.30;;;5.70;;
7817;SDS011;3954;52.624;9.212;2023-05-06T13:36:55;6.95;;;6.25;;
7817;SDS011;3954;52.624;9.212;2023-05-06T13:39:21;6.60;;;6.00;;
7817;SDS011;3954;52.624;9.212;2023-05-06T13:41:49;6.72;;;5.80;;
7817;SDS011;3954;52.624;9.212;2023-05-06T13:44:15;7.07;;;5.63;;
7817;SDS011;3954;52.624;9.212;2023-05-06T13:46:41;7.57;;;6.50;;
7817;SDS011;3954;52.624;9.212;2023-05-06T13:49:07;6.78;;;5.70;;
7817;SDS011;3954;52.624;9.212;2023-05-06T13:51:33;6.20;;;5.53;;
7817;SDS011;3954;52.624;9.212;2023-05-06T13:53:59;7.00;;;5.27;;
7817;SDS011;3954;52.624;9.212;2023-05-06T13:56:25;7.45;;;6.32;;
7817;SDS011;3954;52.624;9.212;2023-05-06T13:58:53;8.15;;;7.32;;
7817;SDS011;3954;52.624;9.212;2023-05-06T14:01:19;8.07;;;6.90;;
7817;SDS011;3954;52.624;9.212;2023-05-06T14:03:45;8.25;;;7.45;;
7817;SDS011;3954;52.624;9.212;2023-05-06T14:06:11;9.07;;;7.30;;
7817;SDS011;3954;52.624;9.212;2023-05-06T14:08:37;7.53;;;6.65;;
7817;SDS011;3954;52.624;9.212;2023-05-06T14:11:03;7.30;;;6.40;;
7817;SDS011;3954;52.624;9.212;2023-05-06T14:13:29;7.50;;;5.80;;
7817;SDS011;3954;52.624;9.212;2023-05-06T14:15:57;7.10;;;5.60;;
7817;SDS011;3954;52.624;9.212;2023-05-06T14:18:24;8.25;;;6.70;;
7817;SDS011;3954;52.624;9.212;2023-05-06T14:20:50;7.50;;;5.93;;
7817;SDS011;3954;52.624;9.212;2023-05-06T14:23:16;6.30;;;5.70;;
7817;SDS011;3954;52.624;9.212;2023-05-06T14:25:42;5.80;;;5.20;;
7817;SDS011;3954;52.624;9.212;2023-05-06T14:28:08;6.10;;;4.82;;
7817;SDS011;3954;52.624;9.212;2023-05-06T14:30:35;5.45;;;4.80;;
7817;SDS011;3954;52.624;9.212;2023-05-06T14:33:02;5.50;;;4.90;;
7817;SDS011;3954;52.624;9.212;2023-05-06T14:35:28;5.32;;;4.53;;
7817;SDS011;3954;52.624;9.212;2023-05-06T14:37:54;4.97;;;4.47;;
7817;SDS011;3954;52.624;9.212;2023-05-06T14:40:20;5.53;;;4.70;;
7817;SDS011;3954;52.624;9.212;2023-05-06T14:42:46;5.28;;;3.70;;
7817;SDS011;3954;52.624;9.212;2023-05-06T14:45:13;5.85;;;4.05;;
7817;SDS011;3954;52.624;9.212;2023-05-06T14:47:40;5.53;;;3.95;;
7817;SDS011;3954;52.624;9.212;2023-05-06T14:50:08;4.57;;;3.60;;
7817;SDS011;3954;52.624;9.212;2023-05-06T14:52:35;5.22;;;3.80;;
7817;SDS011;3954;52.624;9.212;2023-05-06T14:55:08;4.38;;;3.60;;
7817;SDS011;3954;52.624;9.212;2023-05-06T14:57:34;4.72;;;3.33;;
7817;SDS011;3954;52.624;9.212;2023-05-06T15:00:01;4.35;;;3.50;;
7817;SDS011;3954;52.624;9.212;2023-05-06T15:02:28;11.88;;;10.75;;
7817;SDS011;3954;52.624;9.212;2023-05-06T15:04:54;5.43;;;4.93;;